MST,Max TemperatureF,Mean TemperatureF,Min TemperatureF,Max Dew PointF,MeanDew PointF,Min DewpointF,Max Humidity, Mean Humidity, Min Humidity, Max Sea Level PressureIn, Mean Sea Level PressureIn, Min Sea Level PressureIn, Max VisibilityMiles, Mean VisibilityMiles, Min VisibilityMiles, Max Wind SpeedMPH, Mean Wind SpeedMPH, Max Gust SpeedMPH,PrecipitationIn, CloudCover, Events, WindDirDegrees
2013-4-1,61,41,21,29,15,-4,89,44,9,29.99,29.94,29.88,10,10,10,24,7,32,0.00,0,,237
2013-4-2,53,36,19,25,20,13,78,53,34,30.06,29.98,29.93,10,10,10,12,4,23,0.00,2,,295
2013-4-3,64,42,19,26,18,13,85,47,14,30.16,30.12,30.06,10,10,10,15,4,21,0.00,0,,38
2013-4-4,68,44,21,19,14,10,72,34,11,30.23,30.09,29.94,10,10,10,20,5,24,0.00,0,,215
2013-4-5,66,47,28,26,18,11,64,34,12,29.98,29.90,29.81,10,10,10,23,7,32,0.00,1,,235
2013-4-6,66,46,25,27,20,17,75,41,16,29.99,29.93,29.87,10,10,10,16,3,26,0.00,0,,251
2013-4-7,66,45,24,25,17,11,75,37,12,29.94,29.83,29.64,10,10,10,16,4,30,0.00,0,,241
2013-4-8,50,40,30,32,29,24,93,75,42,29.58,29.45,29.28,10,7,0,29,14,46,0.08,6,Fog-Snow,237
2013-4-9,41,36,30,28,21,15,89,59,38,29.90,29.67,29.47,10,10,10,16,6,26,0.01,6,,322
2013-4-10,50,34,19,21,15,10,85,50,21,30.08,30.02,29.92,10,10,10,14,4,22,0.00,1,,348
2013-4-11,60,40,21,23,19,15,78,49,19,30.04,29.92,29.85,10,10,10,13,3,21,0.00,3,,272
2013-4-12,62,42,21,24,17,11,81,43,14,29.91,29.88,29.83,10,10,10,12,2,18,0.00,1,,331
2013-4-13,68,44,21,22,17,13,78,37,13,29.90,29.77,29.60,10,10,10,26,7,38,0.00,0,,231
2013-4-14,68,54,41,26,24,20,49,33,17,29.65,29.58,29.52,10,10,10,23,13,34,0.00,0,,232
2013-4-15,62,50,37,30,26,19,60,40,20,29.59,29.55,29.49,10,10,10,31,17,46,0.00,0,,211
2013-4-16,54,44,32,33,23,4,67,48,18,29.74,29.62,29.47,10,10,10,33,22,46,0.00,7,,228
2013-4-17,43,30,17,25,16,3,86,58,19,30.16,29.90,29.73,10,10,10,14,5,32,0.00,4,,301
2013-4-18,48,28,8,6,2,-2,70,34,13,30.31,30.22,30.17,10,10,10,13,3,24,0.00,0,,359
2013-4-19,57,34,12,7,3,-1,56,30,10,30.31,30.17,30.02,10,10,10,12,3,21,0.00,0,,327
2013-4-20,61,40,19,15,9,5,57,32,12,30.11,30.03,30.01,10,10,10,15,3,25,0.00,0,,308
2013-4-21,69,45,21,19,11,6,65,28,9,30.18,30.06,29.94,10,10,10,16,4,24,0.00,0,,240
2013-4-22,73,50,26,18,13,9,51,24,10,30.00,29.87,29.72,10,10,10,21,6,36,0.00,0,,239
2013-4-23,60,40,21,19,2,-14,56,24,5,30.05,29.92,29.75,10,10,10,15,3,23,0.00,1,,301
2013-4-24,66,42,17,2,-4,-18,41,16,4,30.04,29.98,29.88,10,10,10,13,3,22,0.00,0,,89
2013-4-25,62,44,27,17,11,0,54,26,13,30.06,29.94,29.86,10,10,10,15,3,25,0.00,2,,187
2013-4-26,68,46,24,26,11,1,69,33,7,30.20,30.15,30.07,10,10,8,12,2,23,0.00,0,,292
2013-4-27,70,48,25,10,4,-5,45,22,6,30.22,30.15,30.07,10,10,10,12,3,22,0.00,0,,12
2013-4-28,75,51,27,15,9,3,39,21,7,30.07,29.98,29.90,10,10,10,10,3,17,0.00,0,,38
2013-4-29,79,54,28,24,12,7,54,24,6,29.91,29.82,29.70,10,10,10,14,3,26,0.00,0,,245
2013-4-30,77,54,30,23,10,3,54,21,6,29.77,29.72,29.68,10,10,10,28,8,44,0.00,0,,228